Temperatura - Umidità - Pioggia orarie dal 15-10-2019 al 23-10-2019

Intensità - Direzione vento orarie dal 15-10-2019 al 23-10-2019

Dati orari da stazione meteo dal 15-10-2019 al 23-10-2019

Nome Stazione Data Ora Temperatura [°C] Umidità [%] Pioggia [mm] Intensità vento[km/h] Direzione vento [°]
Savigliano 15-10-2019 02:00 15 86.8 0 0 44
Savigliano 15-10-2019 03:00 14.9 87.9 0 0 30
Savigliano 15-10-2019 04:00 14.8 87 0 0 30
Savigliano 15-10-2019 05:00 14.4 87.1 0 0 30
Savigliano 15-10-2019 06:00 14.2 90.5 0 0.4 30
Savigliano 15-10-2019 07:00 13.1 92.1 0 1.1 29
Savigliano 15-10-2019 08:00 12.5 92.1 0.5 1.1 29
Savigliano 15-10-2019 09:00 12.7 91.7 1.3 3.2 29
Savigliano 15-10-2019 10:00 12.6 92.3 0.5 1.4 29
Savigliano 15-10-2019 11:00 12.7 92.7 0 1.8 29
Savigliano 15-10-2019 12:00 12.9 93.1 0.3 1.4 29
Savigliano 15-10-2019 13:00 13.1 93.3 0.7 1.8 29
Savigliano 15-10-2019 14:00 13.1 93.5 0 0.7 30
Savigliano 15-10-2019 15:00 14.2 94 0 1.4 30
Savigliano 15-10-2019 16:00 14.7 94 0 0.4 30
Savigliano 15-10-2019 17:00 14.8 93.7 0 0 30
Savigliano 15-10-2019 18:00 14.8 92.6 0 0.4 29
Savigliano 15-10-2019 19:00 14.7 92.3 0 0.4 30
Savigliano 15-10-2019 20:00 12.9 92.5 0 1.4 30
Savigliano 15-10-2019 21:00 12.1 91.6 0 5 31
Savigliano 15-10-2019 22:00 12.3 92 0 3.2 30
Savigliano 15-10-2019 23:00 11.9 92 0 3.6 31
Savigliano 16-10-2019 00:00 10.4 91.3 0 0 30
Savigliano 16-10-2019 01:00 9.7 91.8 0 0.4 30
Savigliano 16-10-2019 02:00 9.8 92.6 0 1.1 30
Savigliano 16-10-2019 03:00 9.5 92.7 0 0.4 30
Savigliano 16-10-2019 04:00 9.6 95.1 0 0.4 29
Savigliano 16-10-2019 05:00 9.5 95.9 0 0.4 30
Savigliano 16-10-2019 06:00 8.4 96 0 0.7 30
Savigliano 16-10-2019 07:00 7.8 96.1 0 1.8 31
Savigliano 16-10-2019 08:00 7.1 96.2 0 1.4 31
Savigliano 16-10-2019 09:00 7.3 96.5 0 2.9 31
Savigliano 16-10-2019 10:00 10.6 88 0 1.1 30
Savigliano 16-10-2019 11:00 14.3 77.9 0 0.4 29
Savigliano 16-10-2019 12:00 14.9 78.5 0 2.2 36
Savigliano 16-10-2019 13:00 15.7 75.4 0 1.1 29
Savigliano 16-10-2019 14:00 17.3 72.3 0 1.8 31
Savigliano 16-10-2019 15:00 17.8 69.1 0 1.8 37
Savigliano 16-10-2019 16:00 18.8 67.5 0 1.8 31
Savigliano 16-10-2019 17:00 19.6 67.8 0 1.4 29
Savigliano 16-10-2019 18:00 18.5 69.7 0 0.7 29
Savigliano 16-10-2019 19:00 16.8 74.2 0 0.7 33
Savigliano 16-10-2019 20:00 14.7 77 0 0.4 36
Savigliano 16-10-2019 21:00 13.7 81.8 0 0 36
Savigliano 16-10-2019 22:00 12.2 86 0 0 36
Savigliano 16-10-2019 23:00 11.8 86.2 0 0 29
Savigliano 17-10-2019 00:00 12.2 86.6 0 0 29
Savigliano 17-10-2019 01:00 11.8 86.6 0 1.4 29
Savigliano 17-10-2019 02:00 10.5 85.5 0 0 287
Savigliano 17-10-2019 03:00 9.5 86.1 0 0 29
Savigliano 17-10-2019 04:00 9.2 86.3 0 0 29
Savigliano 17-10-2019 05:00 9.5 85.8 0 0.4 29
Savigliano 17-10-2019 06:00 9.8 87 0 0 29
Savigliano 17-10-2019 07:00 9.5 90.2 0 0 29
Savigliano 17-10-2019 08:00 9.2 88.3 0 0 29
Savigliano 17-10-2019 09:00 10.4 89.6 0 0 29
Savigliano 17-10-2019 10:00 12.3 85.5 0 0 29
Savigliano 17-10-2019 11:00 11.9 80.4 0 0.4 29
Savigliano 17-10-2019 12:00 14.2 78 0 0.7 30
Savigliano 17-10-2019 13:00 15.3 77.8 0 1.4 37
Savigliano 17-10-2019 14:00 15.6 74.5 0 1.8 33
Savigliano 17-10-2019 14:17 17.4 75 0.1 2.5 332
Savigliano 17-10-2019 15:00 17.2 70.2 0 1.4 223
Savigliano 17-10-2019 16:00 17.2 72.4 0 0.4 135
Savigliano 17-10-2019 17:00 17 75.1 0 0.4 218
Savigliano 17-10-2019 18:00 16.2 74.7 0 0.4 266
Savigliano 17-10-2019 19:00 14.7 75.4 0 0.4 263
Savigliano 17-10-2019 20:00 14.3 77.8 0 0.4 262
Savigliano 17-10-2019 21:00 14.4 73.6 0 0 262
Savigliano 17-10-2019 22:00 14.9 79.8 0 0 263
Savigliano 17-10-2019 23:00 14.5 84 0 0 263
Savigliano 18-10-2019 00:00 14.2 86.1 0 0 262
Savigliano 18-10-2019 01:00 14.2 84.8 0 0 263
Savigliano 18-10-2019 02:00 12.5 86.2 0 0 263
Savigliano 18-10-2019 03:00 12.4 86.4 0 0 263
Savigliano 18-10-2019 04:00 12.3 85.8 0 0 262
Savigliano 18-10-2019 05:00 12.1 87 0 0.4 263
Savigliano 18-10-2019 06:00 12 86 0 0 250
Savigliano 18-10-2019 07:00 12 85.8 0 0 250
Savigliano 18-10-2019 08:00 11.9 85.8 0 0 250
Savigliano 18-10-2019 09:00 11.9 86.5 0 0 250
Savigliano 18-10-2019 10:00 13.3 86.4 0 0.4 261
Savigliano 18-10-2019 11:00 14.6 84.7 0 0.7 310
Savigliano 18-10-2019 12:00 15.9 82.1 0 0.4 309
Savigliano 18-10-2019 13:00 16.5 80.9 0 1.1 291
Savigliano 18-10-2019 14:00 17.4 75.5 0 0.7 146
Savigliano 18-10-2019 15:00 17.3 74.7 0 0.7 94
Savigliano 18-10-2019 16:00 17.2 74.4 0 1.4 211
Savigliano 18-10-2019 17:00 17.3 74.5 0 1.1 193
Savigliano 18-10-2019 18:00 16.5 78.9 0 0.4 13
Savigliano 18-10-2019 19:00 15.2 80.7 0 0.4 23
Savigliano 18-10-2019 20:00 14.4 86.6 0 0.4 84
Savigliano 18-10-2019 21:00 14.4 87.8 0 0 86
Savigliano 18-10-2019 22:00 15.2 87.7 0 0 85
Savigliano 18-10-2019 23:00 14.9 86.3 0 0.4 125
Savigliano 19-10-2019 00:00 14.3 90.1 0 0.7 264
Savigliano 19-10-2019 01:00 13.2 91.8 0 1.1 266
Savigliano 19-10-2019 02:00 12.6 92.5 0 0.7 271
Savigliano 19-10-2019 03:00 12.5 92.9 0 0.4 274
Savigliano 19-10-2019 04:00 12.4 93.1 0 0.7 274
Savigliano 19-10-2019 05:00 12.4 91.7 0 0.7 269
Savigliano 19-10-2019 06:00 12.3 91.4 0 0.4 268
Savigliano 19-10-2019 07:00 12.3 91.6 0 0.4 269
Savigliano 19-10-2019 08:00 12.3 91.5 0 0.7 291
Savigliano 19-10-2019 09:00 12.4 91.6 0 0 320
Savigliano 19-10-2019 10:00 12.4 91.9 0 0 329
Savigliano 19-10-2019 11:00 14.5 92.2 0 0.4 328
Savigliano 19-10-2019 12:00 14.7 87.2 0 0.7 317
Savigliano 19-10-2019 13:00 15 87.1 0 0.7 274
Savigliano 19-10-2019 14:00 15.1 87 0 0.4 285
Savigliano 19-10-2019 15:00 14.6 87 0 0 322
Savigliano 19-10-2019 16:00 14.7 86.4 0 0 333
Savigliano 19-10-2019 17:00 14.9 87 0 0.4 333
Savigliano 19-10-2019 18:00 15 87.4 0 0.4 334
Savigliano 19-10-2019 19:00 14.4 92.4 0 0.4 334
Savigliano 19-10-2019 20:00 14.2 92.8 0 0 334
Savigliano 19-10-2019 21:00 13.5 91.6 0 0 334
Savigliano 19-10-2019 22:00 13.3 91.9 0 0 334
Savigliano 19-10-2019 23:00 12.6 92.1 0 0 334
Savigliano 20-10-2019 00:00 12.5 92.3 0 0.4 269
Savigliano 20-10-2019 01:00 12.6 92.4 0 0 252
Savigliano 20-10-2019 02:00 12.5 92.6 0 0 251
Savigliano 20-10-2019 03:00 12.5 92.7 0 0.4 250
Savigliano 20-10-2019 04:00 12.6 92.7 0 0 252
Savigliano 20-10-2019 05:00 12.6 92.6 0 0 253
Savigliano 20-10-2019 06:00 12.6 92.6 0 0 253
Savigliano 20-10-2019 07:00 12.5 92.7 0 0 253
Savigliano 20-10-2019 08:00 12.4 92.8 0 0 253
Savigliano 20-10-2019 09:00 12.6 92.8 0 0 253
Savigliano 20-10-2019 10:00 13.9 93 0 0 253
Savigliano 20-10-2019 11:00 14.5 92.6 0 0.4 263
Savigliano 20-10-2019 12:00 14.9 92.2 0 0.4 286
Savigliano 20-10-2019 13:00 15 94 0 0 291
Savigliano 20-10-2019 14:00 14.8 92 0 0.4 265
Savigliano 20-10-2019 15:00 15 92.5 0 0 265
Savigliano 20-10-2019 16:00 15.1 92.4 0 0 266
Savigliano 20-10-2019 17:00 15.1 92.1 0 0 268
Savigliano 20-10-2019 18:00 14.9 92.3 0 0.4 201
Savigliano 20-10-2019 19:00 14.8 92.8 0.1 0 303
Savigliano 20-10-2019 20:00 14.7 93.1 0 0 303
Savigliano 20-10-2019 21:00 14.6 93.3 0 0 304
Savigliano 20-10-2019 22:00 14.5 93.6 0 0 306
Savigliano 20-10-2019 23:00 14.4 93.7 0 0.4 305
Savigliano 21-10-2019 00:00 14.4 93.9 0 0 303
Savigliano 21-10-2019 01:00 14.4 94 0 0.4 302
Savigliano 21-10-2019 02:00 14.4 96 0 0.4 300
Savigliano 21-10-2019 03:00 14.4 96.9 0.1 0.4 287
Savigliano 21-10-2019 04:00 14.3 97 0.5 1.8 254
Savigliano 21-10-2019 05:00 13.9 97 0 0.7 232
Savigliano 21-10-2019 06:00 13.5 97 0 1.4 231
Savigliano 21-10-2019 07:00 14.2 97.3 0 2.9 59
Savigliano 21-10-2019 08:00 14.3 97.3 0.1 1.1 224
Savigliano 21-10-2019 09:00 14.2 97.4 0 1.1 220
Savigliano 21-10-2019 10:00 14.3 97.5 0 1.4 194
Savigliano 21-10-2019 11:00 14.8 97.6 0 0 199
Savigliano 21-10-2019 12:00 15.1 97.6 0 0 242
Savigliano 21-10-2019 13:00 14.3 97.4 0 0.4 247
Savigliano 21-10-2019 14:00 14.6 97.2 0 1.1 323
Savigliano 21-10-2019 15:00 14.6 94.1 0 0.7 340
Savigliano 21-10-2019 16:00 14.6 92.6 0 0 338
Savigliano 21-10-2019 17:00 14.6 92.2 0 0 339
Savigliano 21-10-2019 18:00 14.6 92.4 0 0.4 327
Savigliano 21-10-2019 19:00 14.4 92.4 0 0.4 317
Savigliano 21-10-2019 20:00 14.8 92.8 0 0.7 298
Savigliano 21-10-2019 21:00 14.2 92.8 0 0.4 272
Savigliano 21-10-2019 22:00 14.5 93.2 0 1.1 274
Savigliano 21-10-2019 23:00 15.2 93.7 0 0.7 292
Savigliano 22-10-2019 00:00 15.2 93.7 0 0.4 276
Savigliano 22-10-2019 01:00 15.2 93.9 0 0.7 264
Savigliano 22-10-2019 02:00 15 94.1 0 1.1 212
Savigliano 22-10-2019 03:00 14.9 94.2 0 0 231
Savigliano 22-10-2019 04:00 15.1 94 0 0 231
Savigliano 22-10-2019 05:00 15 93.7 0 0 232
Savigliano 22-10-2019 06:00 15 93.6 0 0 231
Savigliano 22-10-2019 07:00 14.9 93.6 0 0.4 229
Savigliano 22-10-2019 08:00 14.6 93.7 0 0.7 239
Savigliano 22-10-2019 09:00 14.7 93.8 0 1.1 218
Savigliano 22-10-2019 10:00 14.9 93.8 0 0 151
Savigliano 22-10-2019 11:00 14.5 93.6 0 0 151
Savigliano 22-10-2019 12:00 14.5 93.3 0 0.4 180
Savigliano 15-10-2019 08:05 0 0 0.2 0 0
Savigliano 15-10-2019 08:10 0 0 0.2 0 0
Savigliano 15-10-2019 08:15 0 0 0.5 0 0
Savigliano 15-10-2019 08:20 0 0 0.6 0 0
Savigliano 15-10-2019 08:25 0 0 1.3 0 0
Savigliano 15-10-2019 08:30 0 0 1 0 0
Savigliano 15-10-2019 08:35 0 0 1.5 0 0
Savigliano 15-10-2019 08:40 0 0 0.2 0 0
Savigliano 15-10-2019 08:45 0 0 0.1 0 0
Savigliano 15-10-2019 08:50 0 0 0.5 0 0
Savigliano 15-10-2019 08:55 0 0 0.3 0 0
Savigliano 15-10-2019 09:05 0 0 0.7 0 0
Savigliano 15-10-2019 09:10 0 0 0.6 0 0
Savigliano 15-10-2019 09:15 0 0 0.7 0 0
Savigliano 15-10-2019 09:20 0 0 0.6 0 0
Savigliano 15-10-2019 09:25 0 0 0.5 0 0
Savigliano 15-10-2019 09:30 0 0 0.5 0 0
Savigliano 15-10-2019 09:35 0 0 0.5 0 0
Savigliano 15-10-2019 09:40 0 0 0.4 0 0
Savigliano 15-10-2019 09:45 0 0 0.4 0 0
Savigliano 15-10-2019 09:50 0 0 0.3 0 0
Savigliano 15-10-2019 09:55 0 0 0.5 0 0
Savigliano 15-10-2019 10:05 0 0 0.3 0 0
Savigliano 15-10-2019 10:10 0 0 0.2 0 0
Savigliano 15-10-2019 10:15 0 0 0.4 0 0
Savigliano 15-10-2019 10:20 0 0 0.2 0 0
Savigliano 15-10-2019 10:25 0 0 0.2 0 0
Savigliano 15-10-2019 10:30 0 0 0.1 0 0
Savigliano 15-10-2019 10:35 0 0 0.3 0 0
Savigliano 15-10-2019 10:40 0 0 0.4 0 0
Savigliano 15-10-2019 10:45 0 0 0.2 0 0
Savigliano 15-10-2019 10:50 0 0 0.2 0 0
Savigliano 15-10-2019 10:55 0 0 0.1 0 0
Savigliano 15-10-2019 11:15 0 0 0.1 0 0
Savigliano 15-10-2019 11:20 0 0 0.2 0 0
Savigliano 15-10-2019 11:25 0 0 0.3 0 0
Savigliano 15-10-2019 11:30 0 0 0.5 0 0
Savigliano 15-10-2019 11:35 0 0 0.3 0 0
Savigliano 15-10-2019 11:40 0 0 0.4 0 0
Savigliano 15-10-2019 11:45 0 0 0.2 0 0
Savigliano 15-10-2019 11:50 0 0 0.2 0 0
Savigliano 15-10-2019 11:55 0 0 0.2 0 0
Savigliano 15-10-2019 12:05 0 0 0.3 0 0
Savigliano 15-10-2019 12:10 0 0 0.4 0 0
Savigliano 15-10-2019 12:15 0 0 0.3 0 0
Savigliano 15-10-2019 12:20 0 0 0.4 0 0
Savigliano 15-10-2019 12:25 0 0 0.4 0 0
Savigliano 15-10-2019 12:30 0 0 0.4 0 0
Savigliano 15-10-2019 12:35 0 0 0.4 0 0
Savigliano 15-10-2019 12:40 0 0 0.4 0 0
Savigliano 15-10-2019 12:45 0 0 0.5 0 0
Savigliano 15-10-2019 12:50 0 0 0.5 0 0
Savigliano 15-10-2019 12:55 0 0 0.5 0 0
Savigliano 15-10-2019 13:05 0 0 0.8 0 0
Savigliano 15-10-2019 13:10 0 0 0.7 0 0
Savigliano 15-10-2019 13:15 0 0 0.5 0 0
Savigliano 15-10-2019 13:20 0 0 0.5 0 0
Savigliano 15-10-2019 13:25 0 0 0.2 0 0
Savigliano 15-10-2019 13:30 0 0 0.6 0 0
Savigliano 15-10-2019 13:35 0 0 0.3 0 0
Savigliano 17-10-2019 14:15 0 0 0.8 0 0
Savigliano 17-10-2019 14:25 0 0 0.1 0 0
Savigliano 20-10-2019 17:20 0 0 0.2 0 0
Savigliano 20-10-2019 18:35 0 0 0.1 0 0
Savigliano 20-10-2019 18:40 0 0 0.1 0 0
Savigliano 20-10-2019 18:45 0 0 0.1 0 0
Savigliano 20-10-2019 18:50 0 0 0.2 0 0
Savigliano 20-10-2019 19:05 0 0 0.1 0 0
Savigliano 20-10-2019 19:10 0 0 0.1 0 0
Savigliano 20-10-2019 19:15 0 0 0.2 0 0
Savigliano 20-10-2019 19:20 0 0 0.4 0 0
Savigliano 20-10-2019 19:25 0 0 0.4 0 0
Savigliano 20-10-2019 19:30 0 0 0.2 0 0
Savigliano 20-10-2019 19:35 0 0 0.2 0 0
Savigliano 20-10-2019 19:40 0 0 0.1 0 0
Savigliano 21-10-2019 03:05 0 0 0.3 0 0
Savigliano 21-10-2019 03:10 0 0 0.1 0 0
Savigliano 21-10-2019 03:15 0 0 0.1 0 0
Savigliano 21-10-2019 03:20 0 0 0.1 0 0
Savigliano 21-10-2019 03:25 0 0 0.2 0 0
Savigliano 21-10-2019 03:30 0 0 0.2 0 0
Savigliano 21-10-2019 03:35 0 0 0.3 0 0
Savigliano 21-10-2019 03:40 0 0 0.3 0 0
Savigliano 21-10-2019 03:45 0 0 0.4 0 0
Savigliano 21-10-2019 03:50 0 0 0.4 0 0
Savigliano 21-10-2019 03:55 0 0 0.3 0 0
Savigliano 21-10-2019 04:05 0 0 0.5 0 0
Savigliano 21-10-2019 04:10 0 0 0.5 0 0
Savigliano 21-10-2019 04:15 0 0 0.5 0 0
Savigliano 21-10-2019 04:20 0 0 0.4 0 0
Savigliano 21-10-2019 04:25 0 0 0.1 0 0
Savigliano 21-10-2019 04:30 0 0 0.3 0 0
Savigliano 21-10-2019 04:35 0 0 0.3 0 0
Savigliano 21-10-2019 04:40 0 0 0.1 0 0
Savigliano 21-10-2019 07:35 0 0 0.1 0 0
Savigliano 21-10-2019 07:50 0 0 0.1 0 0
Savigliano 21-10-2019 07:55 0 0 0.2 0 0
Savigliano 21-10-2019 08:40 0 0 0.1 0 0
Savigliano 21-10-2019 09:10 0 0 0.1 0 0
Savigliano 21-10-2019 09:20 0 0 0.3 0 0
Savigliano 21-10-2019 09:25 0 0 0.2 0 0
Savigliano 21-10-2019 09:35 0 0 0.1 0 0
Savigliano 21-10-2019 10:55 0 0 0.1 0 0
Savigliano 22-10-2019 08:50 0 0 0.2 0 0
Savigliano 22-10-2019 08:55 0 0 0.1 0 0

Riassuntivo giornaliero del 22-10-2019